Archiv-/Tagesdaten

--Timestamp---	Temp	Chill	HIndex	Humid	Dewpt	 Wind 	HiWind	WindDir	Rain 	Barom	Solar	 ET  	 UV 
--------------	----	-----	------	-----	-----	------	------	-------	-----	-----	-----	-----	----
20110130 00:00	-10.6	-10.6	-10.6	90	-11.9	0	5	158	0.0	1018.2	0	0.000	0.0
20110130 00:05	-10.6	-10.6	-10.6	90	-11.9	2	3	158	0.0	1018.1	0	0.000	0.0
20110130 00:10	-10.6	-10.6	-10.6	90	-11.9	2	5	158	0.0	1018.1	0	0.000	0.0
20110130 00:15	-10.6	-10.6	-10.6	90	-11.9	2	3	158	0.0	1018.0	0	0.000	0.0
20110130 00:20	-10.6	-10.6	-10.6	89	-12.1	0	3	158	0.0	1018.0	0	0.000	0.0
20110130 00:25	-10.7	-10.7	-10.7	89	-12.1	0	0	-100000	0.0	1018.0	0	0.000	0.0
20110130 00:30	-10.7	-10.7	-10.7	89	-12.2	2	3	158	0.0	1018.0	0	0.000	0.0
20110130 00:35	-10.7	-10.7	-10.7	89	-12.2	2	3	158	0.0	1018.0	0	0.000	0.0
20110130 00:40	-10.8	-10.8	-10.8	89	-12.2	0	2	158	0.0	1018.0	0	0.000	0.0
20110130 00:45	-10.8	-10.8	-10.8	89	-12.3	0	3	158	0.0	1018.0	0	0.000	0.0
20110130 00:50	-10.8	-10.8	-10.8	89	-12.3	0	5	158	0.0	1018.0	0	0.000	0.0
20110130 00:55	-10.8	-10.8	-10.8	89	-12.3	0	2	158	0.0	1018.1	0	0.000	0.0
20110130 01:00	-10.8	-10.8	-10.8	89	-12.2	0	0	-100000	0.0	1018.1	0	0.000	0.0
20110130 01:05	-10.8	-10.8	-10.8	89	-12.3	0	0	-100000	0.0	1018.0	0	0.000	0.0
20110130 01:10	-10.8	-10.8	-10.8	89	-12.3	0	0	-100000	0.0	1018.0	0	0.000	0.0
20110130 01:15	-10.9	-10.9	-10.9	89	-12.4	0	0	-100000	0.0	1017.8	0	0.000	0.0
20110130 01:20	-11.1	-11.1	-11.1	89	-12.5	0	0	-100000	0.0	1017.8	0	0.000	0.0
20110130 01:25	-11.2	-11.2	-11.2	89	-12.6	0	0	-100000	0.0	1017.8	0	0.000	0.0
20110130 01:30	-11.3	-11.3	-11.3	89	-12.7	0	0	-100000	0.0	1017.8	0	0.000	0.0
20110130 01:35	-11.3	-11.3	-11.3	89	-12.7	0	3	158	0.0	1017.6	0	0.000	0.0
20110130 01:40	-11.3	-11.3	-11.3	89	-12.7	2	5	158	0.0	1017.5	0	0.000	0.0
20110130 01:45	-11.4	-11.4	-11.4	89	-12.8	2	5	158	0.0	1017.7	0	0.000	0.0
20110130 01:50	-11.4	-11.4	-11.4	89	-12.9	0	3	158	0.0	1017.9	0	0.000	0.0
20110130 01:55	-11.5	-11.5	-11.5	89	-12.9	0	2	158	0.0	1017.8	0	0.000	0.0
20110130 02:00	-11.5	-11.5	-11.5	89	-12.9	2	3	158	0.0	1017.9	0	0.000	0.0
20110130 02:05	-11.5	-11.5	-11.5	89	-12.9	3	5	158	0.0	1017.9	0	0.000	0.0
20110130 02:10	-11.5	-11.5	-11.5	89	-12.9	2	3	158	0.0	1017.9	0	0.000	0.0
20110130 02:15	-11.4	-11.4	-11.4	89	-12.9	2	5	158	0.0	1018.0	0	0.000	0.0
20110130 02:20	-11.4	-11.4	-11.4	89	-12.9	3	5	158	0.0	1017.9	0	0.000	0.0
20110130 02:25	-11.6	-11.6	-11.6	88	-13.1	2	5	158	0.0	1017.9	0	0.000	0.0
20110130 02:30	-11.6	-11.6	-11.6	89	-13.0	2	3	158	0.0	1017.9	0	0.000	0.0
20110130 02:35	-11.5	-11.5	-11.5	89	-12.9	0	3	158	0.0	1017.9	0	0.000	0.0
20110130 02:40	-11.5	-11.5	-11.5	89	-12.9	0	3	158	0.0	1017.8	0	0.000	0.0
20110130 02:45	-11.6	-11.6	-11.6	88	-13.1	2	3	158	0.0	1017.9	0	0.000	0.0
20110130 02:50	-11.6	-11.6	-11.6	88	-13.1	2	3	158	0.0	1017.8	0	0.000	0.0
20110130 02:55	-11.6	-11.6	-11.6	88	-13.2	2	5	158	0.0	1017.8	0	0.000	0.0
20110130 03:00	-11.7	-11.7	-11.7	88	-13.2	3	5	158	0.0	1017.8	0	0.000	0.0
20110130 03:05	-11.6	-11.6	-11.6	89	-13.0	2	3	158	0.0	1017.8	0	0.000	0.0
20110130 03:10	-11.5	-11.5	-11.5	89	-12.9	0	0	-100000	0.0	1017.9	0	0.000	0.0
20110130 03:15	-11.5	-11.5	-11.5	89	-12.9	0	2	158	0.0	1017.8	0	0.000	0.0
20110130 03:20	-11.5	-11.5	-11.5	89	-12.9	0	2	158	0.0	1017.7	0	0.000	0.0
20110130 03:25	-11.5	-11.5	-11.5	89	-12.9	0	0	-100000	0.0	1017.7	0	0.000	0.0
20110130 03:30	-11.4	-11.4	-11.4	89	-12.9	0	0	-100000	0.0	1017.8	0	0.000	0.0
20110130 03:35	-11.4	-11.4	-11.4	89	-12.9	0	0	-100000	0.0	1017.8	0	0.000	0.0
20110130 03:40	-11.4	-11.4	-11.4	89	-12.9	0	0	-100000	0.0	1017.8	0	0.000	0.0
20110130 03:45	-11.6	-11.6	-11.6	88	-13.1	0	0	-100000	0.0	1018.0	0	0.000	0.0
20110130 03:50	-11.7	-11.7	-11.7	88	-13.2	0	0	-100000	0.0	1018.0	0	0.000	0.0
20110130 03:55	-11.7	-11.7	-11.7	88	-13.3	0	0	-100000	0.0	1018.0	0	0.000	0.0
20110130 04:00	-11.8	-11.8	-11.8	89	-13.2	0	0	-100000	0.0	1018.0	0	0.000	0.0
20110130 04:05	-11.9	-11.9	-11.9	88	-13.5	0	0	-100000	0.0	1017.9	0	0.000	0.0
20110130 04:10	-12.1	-12.1	-12.1	88	-13.6	0	0	-100000	0.0	1018.1	0	0.000	0.0
20110130 04:15	-12.2	-12.2	-12.2	88	-13.7	0	0	-100000	0.0	1018.1	0	0.000	0.0
20110130 04:20	-12.2	-12.2	-12.2	88	-13.7	0	0	-100000	0.0	1018.0	0	0.000	0.0
20110130 04:25	-12.2	-12.2	-12.2	88	-13.7	0	0	-100000	0.0	1018.1	0	0.000	0.0
20110130 04:30	-12.1	-12.1	-12.1	88	-13.7	0	0	-100000	0.0	1018.0	0	0.000	0.0
20110130 04:35	-12.0	-12.0	-12.0	89	-13.4	0	0	-100000	0.0	1018.1	0	0.000	0.0
20110130 04:40	-11.9	-11.9	-11.9	88	-13.5	0	2	158	0.0	1018.0	0	0.000	0.0
20110130 04:45	-11.8	-11.8	-11.8	88	-13.4	0	3	158	0.0	1017.9	0	0.000	0.0
20110130 04:50	-11.8	-11.8	-11.8	89	-13.2	0	0	-100000	0.0	1018.0	0	0.000	0.0
20110130 04:55	-11.7	-11.7	-11.7	89	-13.1	0	0	-100000	0.0	1018.0	0	0.000	0.0
20110130 05:00	-11.6	-11.6	-11.6	89	-13.0	0	0	-100000	0.0	1017.9	0	0.000	0.0
20110130 05:05	-11.5	-11.5	-11.5	89	-12.9	0	0	-100000	0.0	1018.2	0	0.000	0.0
20110130 05:10	-11.4	-11.4	-11.4	89	-12.8	0	0	-100000	0.0	1018.1	0	0.000	0.0
20110130 05:15	-11.3	-11.3	-11.3	89	-12.7	0	0	-100000	0.0	1018.0	0	0.000	0.0
20110130 05:20	-11.2	-11.2	-11.2	89	-12.7	0	0	-100000	0.0	1018.0	0	0.000	0.0
20110130 05:25	-11.1	-11.1	-11.1	89	-12.6	0	0	-100000	0.0	1017.9	0	0.000	0.0
20110130 05:30	-11.1	-11.1	-11.1	89	-12.5	0	0	-100000	0.0	1017.8	0	0.000	0.0
20110130 05:35	-10.9	-10.9	-10.9	89	-12.3	0	0	-100000	0.0	1017.8	0	0.000	0.0
20110130 05:40	-10.7	-10.7	-10.7	90	-12.0	0	3	158	0.0	1018.0	0	0.000	0.0
20110130 05:45	-10.4	-10.4	-10.4	90	-11.7	2	3	158	0.0	1018.0	0	0.000	0.0
20110130 05:50	-10.2	-10.2	-10.2	90	-11.5	2	5	68	0.0	1017.9	0	0.000	0.0
20110130 05:55	-9.9	-9.9	-9.9	90	-11.3	2	5	90	0.0	1017.9	0	0.000	0.0
20110130 06:00	-9.8	-9.8	-9.8	90	-11.1	2	3	90	0.0	1017.8	0	0.000	0.0
20110130 06:05	-9.7	-9.7	-9.7	90	-11.0	2	3	90	0.0	1018.0	0	0.000	0.0
20110130 06:10	-9.7	-9.7	-9.7	90	-11.0	3	5	90	0.0	1017.8	0	0.000	0.0
20110130 06:15	-9.7	-9.7	-9.7	90	-11.0	2	5	90	0.0	1017.8	0	0.000	0.0
20110130 06:20	-9.7	-9.7	-9.7	90	-11.0	0	2	90	0.0	1018.0	0	0.000	0.0
20110130 06:25	-9.7	-9.7	-9.7	90	-11.0	0	2	90	0.0	1018.0	0	0.000	0.0
20110130 06:30	-9.7	-9.7	-9.7	90	-11.0	0	2	90	0.0	1018.0	0	0.000	0.0
20110130 06:35	-9.7	-9.7	-9.7	89	-11.1	2	5	90	0.0	1018.1	0	0.000	0.0
20110130 06:40	-9.7	-9.7	-9.7	89	-11.2	2	5	135	0.0	1018.1	0	0.000	0.0
20110130 06:45	-9.7	-9.7	-9.7	89	-11.2	2	6	135	0.0	1018.2	0	0.000	0.0
20110130 06:50	-9.8	-9.8	-9.8	89	-11.2	2	6	180	0.0	1018.3	0	0.000	0.0
20110130 06:55	-9.8	-9.8	-9.8	89	-11.3	3	8	180	0.0	1018.4	0	0.000	0.0
20110130 07:00	-9.9	-9.9	-9.9	89	-11.4	2	6	180	0.0	1018.5	0	0.000	0.0
20110130 07:05	-9.9	-9.9	-9.9	89	-11.4	2	5	180	0.0	1018.6	0	0.000	0.0
20110130 07:10	-10.0	-10.0	-10.0	89	-11.5	2	5	180	0.0	1018.6	0	0.000	0.0
20110130 07:15	-10.1	-10.1	-10.1	89	-11.5	0	3	180	0.0	1018.7	0	0.000	0.0
20110130 07:20	-10.0	-10.0	-10.0	89	-11.5	0	2	180	0.0	1018.7	0	0.000	0.0
20110130 07:25	-9.9	-9.9	-9.9	89	-11.4	0	0	-100000	0.0	1018.7	0	0.000	0.0
20110130 07:30	-9.9	-9.9	-9.9	89	-11.4	2	3	180	0.0	1018.7	0	0.000	0.0
20110130 07:35	-9.9	-9.9	-9.9	89	-11.4	0	2	180	0.0	1018.7	0	0.000	0.0
20110130 07:40	-9.9	-9.9	-9.9	89	-11.4	0	3	180	0.0	1018.7	0	0.000	0.0
20110130 07:45	-9.9	-9.9	-9.9	89	-11.4	2	5	180	0.0	1018.7	0	0.000	0.0
20110130 07:50	-9.8	-9.8	-9.8	89	-11.3	2	5	180	0.0	1018.8	0	0.000	0.0
20110130 07:55	-9.8	-9.8	-9.8	89	-11.3	2	5	180	0.0	1018.7	4	0.000	0.0
20110130 08:00	-9.8	-9.8	-9.8	89	-11.2	2	5	180	0.0	1018.9	6	0.000	0.0
20110130 08:05	-9.8	-9.8	-9.8	89	-11.2	2	5	180	0.0	1018.9	9	0.000	0.0
20110130 08:10	-9.7	-9.7	-9.7	89	-11.2	0	3	180	0.0	1019.0	12	0.000	0.0
20110130 08:15	-9.7	-9.7	-9.7	90	-11.0	0	3	180	0.0	1018.9	14	0.000	0.0
20110130 08:20	-9.7	-9.7	-9.7	90	-11.0	0	2	180	0.0	1019.0	18	0.000	0.0
20110130 08:25	-9.7	-9.7	-9.7	90	-11.0	0	2	180	0.0	1019.0	21	0.000	0.0
20110130 08:30	-9.6	-9.6	-9.6	90	-10.9	0	2	180	0.0	1018.9	26	0.000	0.0
20110130 08:35	-9.5	-9.5	-9.5	90	-10.8	0	3	180	0.0	1018.9	30	0.000	0.0
20110130 08:40	-9.4	-9.4	-9.4	90	-10.8	0	2	135	0.0	1018.9	35	0.000	0.0
20110130 08:45	-9.4	-9.4	-9.4	90	-10.7	0	2	135	0.0	1018.8	39	0.000	0.0
20110130 08:50	-9.4	-9.4	-9.4	90	-10.7	0	2	135	0.0	1018.9	45	0.000	0.0
20110130 08:55	-9.3	-9.3	-9.3	90	-10.7	0	3	135	0.0	1018.8	51	0.000	0.0
20110130 09:00	-9.3	-9.3	-9.3	90	-10.6	0	3	135	0.0	1019.0	56	0.000	0.0
20110130 09:05	-9.3	-9.3	-9.3	90	-10.6	0	0	-100000	0.0	1019.0	60	0.000	0.0
20110130 09:10	-9.3	-9.3	-9.3	90	-10.6	2	6	135	0.0	1019.0	61	0.000	0.0
20110130 09:15	-9.2	-9.2	-9.2	90	-10.6	2	5	90	0.0	1019.0	63	0.000	0.0
20110130 09:20	-9.2	-9.2	-9.2	90	-10.5	3	6	90	0.0	1018.8	68	0.000	0.0
20110130 09:25	-9.1	-9.1	-9.1	90	-10.4	2	5	135	0.0	1018.8	74	0.000	0.0
20110130 09:30	-9.1	-9.1	-9.1	90	-10.4	2	5	135	0.0	1018.8	73	0.000	0.0
20110130 09:35	-8.9	-8.9	-8.9	90	-10.3	2	5	135	0.0	1018.9	79	0.000	0.0
20110130 09:40	-8.9	-8.9	-8.9	90	-10.3	2	6	68	0.0	1018.9	85	0.000	0.0
20110130 09:45	-8.9	-8.9	-8.9	90	-10.2	3	6	68	0.0	1019.0	88	0.000	0.0
20110130 09:50	-8.9	-8.9	-8.9	90	-10.2	3	6	68	0.0	1019.1	92	0.000	0.0
20110130 09:55	-8.8	-8.8	-8.8	90	-10.2	3	5	45	0.0	1019.2	96	0.000	0.0
20110130 10:00	-8.8	-8.8	-8.8	90	-10.1	3	6	45	0.0	1019.2	99	0.025	0.0
20110130 10:05	-8.7	-8.7	-8.7	90	-10.1	3	5	45	0.0	1019.3	98	0.000	0.0
20110130 10:10	-8.7	-8.7	-8.7	90	-10.0	3	5	22	0.0	1019.4	110	0.000	0.0
20110130 10:15	-8.6	-8.6	-8.6	90	-9.9	5	6	45	0.0	1019.2	107	0.000	0.0
20110130 10:20	-8.6	-8.6	-8.6	90	-9.9	3	6	22	0.0	1019.3	111	0.000	0.1
20110130 10:25	-8.5	-8.5	-8.5	90	-9.8	3	5	45	0.0	1019.3	125	0.000	0.5
20110130 10:30	-8.5	-8.5	-8.5	90	-9.8	5	8	45	0.0	1019.4	119	0.000	0.5
20110130 10:35	-8.6	-12.1	-8.6	90	-9.9	6	10	68	0.0	1019.4	129	0.000	0.5
20110130 10:40	-8.6	-8.6	-8.6	90	-9.9	5	8	68	0.0	1019.4	129	0.000	0.5
20110130 10:45	-8.7	-12.2	-8.7	90	-10.0	6	10	45	0.0	1019.5	129	0.000	0.5
20110130 10:50	-8.8	-12.4	-8.8	90	-10.2	6	11	45	0.0	1019.7	138	0.000	0.5
20110130 10:55	-8.8	-8.8	-8.8	90	-10.2	5	8	45	0.0	1019.6	132	0.000	0.6
20110130 11:00	-8.9	-8.9	-8.9	90	-10.2	5	8	68	0.0	1019.7	135	0.025	0.6
20110130 11:05	-8.9	-8.9	-8.9	90	-10.2	5	8	68	0.0	1019.7	140	0.000	0.7
20110130 11:10	-8.8	-8.8	-8.8	90	-10.2	5	8	68	0.0	1019.6	162	0.000	0.7
20110130 11:15	-8.7	-8.7	-8.7	90	-10.0	5	10	112	0.0	1019.6	183	0.000	0.8
20110130 11:20	-8.4	-8.4	-8.4	90	-9.8	3	8	112	0.0	1019.4	201	0.000	0.9
20110130 11:25	-8.3	-8.3	-8.3	90	-9.7	3	5	112	0.0	1019.4	215	0.000	0.9
20110130 11:30	-8.2	-8.2	-8.2	90	-9.5	3	10	112	0.0	1019.4	224	0.000	1.0
20110130 11:35	-8.1	-8.1	-8.1	90	-9.5	3	6	68	0.0	1019.3	225	0.000	1.0
20110130 11:40	-8.1	-8.1	-8.1	90	-9.4	5	10	135	0.0	1019.2	220	0.000	1.1
20110130 11:45	-8.1	-8.1	-8.1	90	-9.5	3	6	112	0.0	1019.3	238	0.000	1.1
20110130 11:50	-8.1	-8.1	-8.1	90	-9.4	3	6	135	0.0	1019.2	250	0.000	1.1
20110130 11:55	-7.9	-7.9	-7.9	91	-9.2	3	8	112	0.0	1019.2	240	0.000	1.1
20110130 12:00	-7.8	-7.8	-7.8	90	-9.1	3	8	135	0.0	1019.1	222	0.051	1.1
20110130 12:05	-7.6	-7.6	-7.6	91	-8.8	3	6	135	0.0	1019.3	443	0.000	1.3
20110130 12:10	-7.4	-7.4	-7.4	91	-8.6	3	6	112	0.0	1019.1	299	0.000	1.2
20110130 12:15	-7.3	-7.3	-7.3	91	-8.5	3	5	45	0.0	1019.1	309	0.000	1.2
20110130 12:20	-7.3	-7.3	-7.3	90	-8.7	5	6	68	0.0	1019.2	255	0.000	1.2
20110130 12:25	-7.5	-7.5	-7.5	90	-8.9	3	8	68	0.0	1019.1	213	0.000	1.1
20110130 12:30	-7.4	-7.4	-7.4	90	-8.7	2	5	90	0.0	1019.0	359	0.000	1.2
20110130 12:35	-7.3	-7.3	-7.3	91	-8.5	2	6	112	0.0	1018.9	200	0.000	1.2
20110130 12:40	-7.2	-7.2	-7.2	91	-8.4	3	6	135	0.0	1019.0	244	0.000	1.3
20110130 12:45	-7.1	-7.1	-7.1	91	-8.3	3	6	90	0.0	1019.0	208	0.000	1.2
20110130 12:50	-7.0	-7.0	-7.0	99	-7.1	2	6	90	0.0	1019.0	222	0.000	1.2
20110130 12:55	-7.0	-7.0	-7.0	90	-8.4	5	10	68	0.0	1018.9	230	0.000	1.2
20110130 13:00	-7.0	-7.0	-7.0	90	-8.4	5	8	22	0.0	1018.9	202	0.076	1.1
20110130 13:05	-6.9	-6.9	-6.9	91	-8.2	2	5	22	0.0	1018.9	211	0.000	1.2
20110130 13:10	-6.9	-6.9	-6.9	90	-8.3	3	6	22	0.0	1018.9	227	0.000	1.2
20110130 13:15	-6.8	-6.8	-6.8	90	-8.2	5	8	22	0.0	1018.9	209	0.000	1.1
20110130 13:20	-6.8	-6.8	-6.8	90	-8.2	5	8	22	0.0	1018.8	223	0.000	1.2
20110130 13:25	-6.7	-6.7	-6.7	91	-7.9	3	6	68	0.0	1018.8	282	0.000	1.2
20110130 13:30	-6.4	-6.4	-6.4	91	-7.7	3	5	68	0.0	1018.7	338	0.000	1.2
20110130 13:35	-6.3	-6.3	-6.3	91	-7.5	3	5	68	0.0	1018.5	346	0.000	1.2
20110130 13:40	-6.2	-6.2	-6.2	91	-7.4	2	5	68	0.0	1018.5	369	0.000	1.2
20110130 13:45	-6.1	-6.1	-6.1	91	-7.3	2	3	68	0.0	1018.4	331	0.000	1.1
20110130 13:50	-5.9	-5.9	-5.9	91	-7.2	2	3	68	0.0	1018.3	334	0.000	1.1
20110130 13:55	-5.7	-5.7	-5.7	91	-7.0	2	5	112	0.0	1018.2	331	0.000	1.1
20110130 14:00	-5.4	-5.4	-5.4	91	-6.7	2	5	112	0.0	1018.2	327	0.076	1.0
20110130 14:05	-5.3	-5.3	-5.3	91	-6.5	3	6	112	0.0	1018.0	325	0.000	1.0
20110130 14:10	-5.2	-5.2	-5.2	90	-6.5	3	6	45	0.0	1018.1	279	0.000	1.0
20110130 14:15	-5.2	-5.2	-5.2	90	-6.6	3	6	45	0.0	1018.3	247	0.000	0.9
20110130 14:20	-5.3	-5.3	-5.3	90	-6.7	3	6	45	0.0	1018.3	224	0.000	0.8
20110130 14:25	-5.3	-5.3	-5.3	90	-6.7	3	6	45	0.0	1018.3	223	0.000	0.8
20110130 14:30	-5.2	-5.2	-5.2	89	-6.7	2	5	45	0.0	1018.3	288	0.000	0.8
20110130 14:35	-5.2	-5.2	-5.2	89	-6.7	3	6	45	0.0	1018.3	235	0.000	0.8
20110130 14:40	-5.2	-5.2	-5.2	89	-6.7	2	8	45	0.0	1018.3	236	0.000	0.7
20110130 14:45	-5.2	-8.2	-5.2	89	-6.7	6	10	45	0.0	1018.4	176	0.000	0.6
20110130 14:50	-5.3	-8.3	-5.3	88	-7.0	6	10	68	0.0	1018.6	137	0.000	0.5
20110130 14:55	-5.3	-8.3	-5.3	88	-7.0	6	11	68	0.0	1018.7	127	0.000	0.5
20110130 15:00	-5.3	-5.3	-5.3	88	-7.0	5	8	45	0.0	1018.5	125	0.051	0.5
20110130 15:05	-5.3	-8.3	-5.3	88	-6.9	6	11	45	0.0	1018.7	124	0.000	0.3
20110130 15:10	-5.3	-8.3	-5.3	87	-7.2	6	14	68	0.0	1018.7	116	0.000	0.0
20110130 15:15	-5.3	-8.3	-5.3	87	-7.1	6	11	45	0.0	1018.4	124	0.000	0.0
20110130 15:20	-5.2	-5.2	-5.2	86	-7.2	5	10	45	0.0	1018.5	115	0.000	0.0
20110130 15:25	-5.2	-8.1	-5.2	86	-7.1	6	10	68	0.0	1018.5	107	0.000	0.0
20110130 15:30	-5.1	-5.1	-5.1	86	-7.1	5	8	68	0.0	1018.4	106	0.000	0.0
20110130 15:35	-5.2	-8.1	-5.2	85	-7.3	6	10	68	0.0	1018.4	100	0.000	0.0
20110130 15:40	-5.2	-8.2	-5.2	84	-7.5	6	11	68	0.0	1018.4	83	0.000	0.0
20110130 15:45	-5.3	-5.3	-5.3	84	-7.5	5	8	68	0.0	1018.4	63	0.000	0.0
20110130 15:50	-5.4	-5.4	-5.4	84	-7.7	3	6	68	0.0	1018.5	62	0.000	0.0
20110130 15:55	-5.4	-5.4	-5.4	84	-7.7	2	6	68	0.0	1018.5	63	0.000	0.0
20110130 16:00	-5.4	-5.4	-5.4	84	-7.7	3	6	68	0.0	1018.7	62	0.025	0.0
20110130 16:05	-5.4	-5.4	-5.4	84	-7.7	2	5	68	0.0	1018.6	58	0.000	0.0
20110130 16:10	-5.4	-5.4	-5.4	84	-7.7	3	5	68	0.0	1018.6	51	0.000	0.0
20110130 16:15	-5.3	-5.3	-5.3	83	-7.8	3	5	68	0.0	1018.6	47	0.000	0.0
20110130 16:20	-5.3	-5.3	-5.3	83	-7.8	3	6	68	0.0	1018.7	43	0.000	0.0
20110130 16:25	-5.3	-5.3	-5.3	83	-7.8	2	5	68	0.0	1018.6	40	0.000	0.0
20110130 16:30	-5.4	-5.4	-5.4	83	-7.8	2	5	68	0.0	1018.7	-100000	0.000	0.0
20110130 16:35	-5.4	-5.4	-5.4	83	-7.9	0	3	68	0.0	1018.7	30	0.000	0.0
20110130 16:40	-5.5	-5.5	-5.5	82	-8.1	2	5	68	0.0	1018.7	25	0.000	0.0
20110130 16:45	-5.7	-5.7	-5.7	82	-8.2	2	3	68	0.0	1018.6	20	0.000	0.0
20110130 16:50	-5.8	-5.8	-5.8	82	-8.3	0	3	68	0.0	1018.6	15	0.000	0.0
20110130 16:55	-5.9	-5.9	-5.9	82	-8.5	0	3	68	0.0	1018.7	12	0.000	0.0
20110130 17:00	-6.2	-6.2	-6.2	82	-8.7	0	2	68	0.0	1018.7	9	0.000	0.0
20110130 17:05	-6.3	-6.3	-6.3	83	-8.7	0	0	-100000	0.0	1018.7	6	0.000	0.0
20110130 17:10	-6.3	-6.3	-6.3	83	-8.7	2	5	68	0.0	1018.8	2	0.000	0.0
20110130 17:15	-6.2	-6.2	-6.2	84	-8.5	0	3	68	0.0	1018.8	0	0.000	0.0
20110130 17:20	-6.2	-6.2	-6.2	85	-8.3	0	3	68	0.0	1018.9	0	0.000	0.0
20110130 17:25	-6.3	-6.3	-6.3	85	-8.4	0	0	-100000	0.0	1018.8	0	0.000	0.0
20110130 17:30	-6.3	-6.3	-6.3	85	-8.4	0	0	-100000	0.0	1018.9	0	0.000	0.0
20110130 17:35	-6.4	-6.4	-6.4	85	-8.5	0	0	-100000	0.0	1018.9	0	0.000	0.0
20110130 17:40	-6.6	-6.6	-6.6	85	-8.7	0	0	-100000	0.0	1019.0	0	0.000	0.0
20110130 17:45	-6.7	-6.7	-6.7	85	-8.8	0	0	-100000	0.0	1019.0	0	0.000	0.0
20110130 17:50	-6.8	-6.8	-6.8	86	-8.8	0	0	-100000	0.0	1019.1	0	0.000	0.0
20110130 17:55	-6.8	-6.8	-6.8	86	-8.8	0	3	68	0.0	1019.1	0	0.000	0.0
20110130 18:00	-7.0	-7.0	-7.0	86	-8.9	2	3	68	0.0	1019.2	0	0.000	0.0
20110130 18:05	-7.1	-7.1	-7.1	87	-8.8	2	5	68	0.0	1019.4	0	0.000	0.0
20110130 18:10	-7.2	-7.2	-7.2	87	-9.0	0	0	-100000	0.0	1019.4	0	0.000	0.0
20110130 18:15	-7.3	-7.3	-7.3	87	-9.1	0	0	-100000	0.0	1019.4	0	0.000	0.0
20110130 18:20	-7.7	-7.7	-7.7	86	-9.6	0	0	-100000	0.0	1019.5	0	0.000	0.0
20110130 18:25	-7.9	-7.9	-7.9	86	-9.9	0	0	-100000	0.0	1019.6	0	0.000	0.0
20110130 18:30	-8.3	-8.3	-8.3	86	-10.2	0	0	-100000	0.0	1019.8	0	0.000	0.0
20110130 18:35	-8.5	-8.5	-8.5	86	-10.4	0	0	-100000	0.0	1019.9	0	0.000	0.0
20110130 18:40	-8.7	-8.7	-8.7	86	-10.6	0	0	-100000	0.0	1019.9	0	0.000	0.0
20110130 18:45	-8.8	-8.8	-8.8	87	-10.6	0	0	-100000	0.0	1019.9	0	0.000	0.0
20110130 18:50	-8.8	-8.8	-8.8	87	-10.5	0	0	-100000	0.0	1020.1	0	0.000	0.0
20110130 18:55	-8.7	-8.7	-8.7	88	-10.3	0	0	-100000	0.0	1020.2	0	0.000	0.0
20110130 19:00	-8.7	-8.7	-8.7	88	-10.3	0	0	-100000	0.0	1020.3	0	0.000	0.0
20110130 19:05	-8.6	-8.6	-8.6	88	-10.2	0	0	-100000	0.0	1020.3	0	0.000	0.0
20110130 19:10	-8.7	-8.7	-8.7	88	-10.3	0	0	-100000	0.0	1020.3	0	0.000	0.0
20110130 19:15	-8.7	-8.7	-8.7	88	-10.3	0	0	-100000	0.0	1020.4	0	0.000	0.0
20110130 19:20	-9.0	-9.0	-9.0	87	-10.8	0	3	68	0.0	1020.4	0	0.000	0.0
20110130 19:25	-9.2	-9.2	-9.2	87	-10.9	2	3	68	0.0	1020.5	0	0.000	0.0
20110130 19:30	-9.3	-9.3	-9.3	87	-11.1	0	3	68	0.0	1020.6	0	0.000	0.0
20110130 19:35	-9.4	-9.4	-9.4	87	-11.2	0	3	68	0.0	1020.7	0	0.000	0.0
20110130 19:40	-9.4	-9.4	-9.4	88	-11.1	0	3	68	0.0	1020.7	0	0.000	0.0
20110130 19:45	-9.4	-9.4	-9.4	88	-11.1	0	0	-100000	0.0	1020.7	0	0.000	0.0
20110130 19:50	-9.3	-9.3	-9.3	89	-10.8	2	3	68	0.0	1020.7	0	0.000	0.0
20110130 19:55	-9.3	-9.3	-9.3	89	-10.7	2	3	68	0.0	1020.9	0	0.000	0.0
20110130 20:00	-9.2	-9.2	-9.2	89	-10.6	2	5	68	0.0	1020.9	0	0.000	0.0
20110130 20:05	-9.0	-9.0	-9.0	89	-10.5	2	3	68	0.0	1020.8	0	0.000	0.0
20110130 20:10	-8.8	-8.8	-8.8	89	-10.3	0	0	-100000	0.0	1020.9	0	0.000	0.0
20110130 20:15	-8.7	-8.7	-8.7	90	-10.0	0	2	68	0.0	1020.9	0	0.000	0.0
20110130 20:20	-8.6	-8.6	-8.6	90	-9.9	0	0	-100000	0.0	1020.9	0	0.000	0.0
20110130 20:25	-8.5	-8.5	-8.5	89	-10.0	0	0	-100000	0.0	1020.9	0	0.000	0.0
20110130 20:30	-8.5	-8.5	-8.5	89	-10.0	0	0	-100000	0.0	1020.9	0	0.000	0.0
20110130 20:35	-8.4	-8.4	-8.4	89	-9.9	0	0	-100000	0.0	1020.9	0	0.000	0.0
20110130 20:40	-8.3	-8.3	-8.3	89	-9.8	0	3	68	0.0	1021.0	0	0.000	0.0
20110130 20:45	-8.1	-8.1	-8.1	89	-9.6	2	5	68	0.0	1020.9	0	0.000	0.0
20110130 20:50	-8.0	-8.0	-8.0	89	-9.5	2	5	68	0.0	1021.0	0	0.000	0.0
20110130 20:55	-7.8	-7.8	-7.8	89	-9.3	2	5	68	0.0	1020.9	0	0.000	0.0
20110130 21:00	-7.8	-7.8	-7.8	89	-9.3	2	3	68	0.0	1020.9	0	0.000	0.0
20110130 21:05	-7.7	-7.7	-7.7	89	-9.2	3	5	68	0.0	1020.7	0	0.000	0.0
20110130 21:10	-7.6	-7.6	-7.6	89	-9.0	3	5	68	0.0	1020.8	0	0.000	0.0
20110130 21:15	-7.4	-7.4	-7.4	89	-8.9	3	6	68	0.0	1020.8	0	0.000	0.0
20110130 21:20	-7.3	-7.3	-7.3	88	-9.0	5	10	135	0.0	1020.9	0	0.000	0.0
20110130 21:25	-7.3	-7.3	-7.3	89	-8.8	3	11	135	0.0	1020.8	0	0.000	0.0
20110130 21:30	-7.2	-7.2	-7.2	88	-8.9	5	8	135	0.0	1020.8	0	0.000	0.0
20110130 21:35	-7.2	-7.2	-7.2	88	-8.8	5	8	135	0.0	1020.8	0	0.000	0.0
20110130 21:40	-7.1	-7.1	-7.1	88	-8.8	3	5	135	0.0	1020.8	0	0.000	0.0
20110130 21:45	-7.1	-7.1	-7.1	88	-8.7	3	5	135	0.0	1021.0	0	0.000	0.0
20110130 21:50	-7.1	-7.1	-7.1	88	-8.7	2	5	135	0.0	1020.9	0	0.000	0.0
20110130 21:55	-7.1	-7.1	-7.1	88	-8.7	2	6	135	0.0	1021.0	0	0.000	0.0
20110130 22:00	-7.1	-7.1	-7.1	88	-8.7	3	6	135	0.0	1021.0	0	0.000	0.0
20110130 22:05	-7.0	-7.0	-7.0	88	-8.6	3	6	135	0.0	1021.0	0	0.000	0.0
20110130 22:10	-6.9	-6.9	-6.9	88	-8.6	2	6	135	0.0	1020.9	0	0.000	0.0
20110130 22:15	-6.9	-6.9	-6.9	88	-8.6	5	8	112	0.0	1020.8	0	0.000	0.0
20110130 22:20	-6.9	-6.9	-6.9	88	-8.5	5	8	112	0.0	1020.9	0	0.000	0.0
20110130 22:25	-6.9	-10.1	-6.9	88	-8.5	6	19	112	0.0	1020.9	0	0.000	0.0
20110130 22:30	-6.8	-10.1	-6.8	88	-8.5	6	16	135	0.0	1021.0	0	0.000	0.0
20110130 22:35	-6.8	-6.8	-6.8	88	-8.5	5	6	112	0.0	1020.9	0	0.000	0.0
20110130 22:40	-6.8	-6.8	-6.8	88	-8.5	5	11	112	0.0	1020.9	0	0.000	0.0
20110130 22:45	-6.8	-6.8	-6.8	89	-8.3	5	10	135	0.0	1020.9	0	0.000	0.0
20110130 22:50	-6.8	-10.8	-6.8	89	-8.3	8	11	112	0.0	1021.0	0	0.000	0.0
20110130 22:55	-6.8	-10.1	-6.8	89	-8.3	6	11	135	0.0	1021.1	0	0.000	0.0
20110130 23:00	-6.8	-6.8	-6.8	89	-8.3	3	8	90	0.0	1021.1	0	0.000	0.0
20110130 23:05	-6.8	-6.8	-6.8	89	-8.3	3	8	135	0.0	1021.0	0	0.000	0.0
20110130 23:10	-6.8	-6.8	-6.8	89	-8.3	5	10	112	0.0	1021.0	0	0.000	0.0
20110130 23:15	-6.8	-6.8	-6.8	89	-8.3	5	10	90	0.0	1021.0	0	0.000	0.0
20110130 23:20	-6.8	-10.1	-6.8	89	-8.3	6	10	135	0.0	1021.1	0	0.000	0.0
20110130 23:25	-6.8	-6.8	-6.8	89	-8.3	3	8	90	0.0	1021.2	0	0.000	0.0
20110130 23:30	-6.8	-6.8	-6.8	89	-8.3	3	6	112	0.0	1021.2	0	0.000	0.0
20110130 23:35	-6.8	-6.8	-6.8	89	-8.3	3	8	112	0.0	1021.3	0	0.000	0.0
20110130 23:40	-6.8	-6.8	-6.8	89	-8.3	5	8	112	0.0	1021.3	0	0.000	0.0
20110130 23:45	-6.8	-6.8	-6.8	89	-8.3	5	11	135	0.0	1021.3	0	0.000	0.0
20110130 23:50	-6.8	-6.8	-6.8	89	-8.3	3	6	112	0.0	1021.3	0	0.000	0.0
20110130 23:55	-6.8	-6.8	-6.8	89	-8.3	3	8	112	0.0	1021.5	0	0.000	0.0



Please note the license to use and transfer of this data:
http://creativecommons.org/licenses/by-nc-sa/3.0/deed.en

Bitte beachten sie die Lizenz zur Verwertung und Weitergabe der Daten:
http://creativecommons.org/licenses/by-nc-sa/3.0/deed.de

zurück zur Übersicht der Archivdaten (Monats und Tagesdaten)

Cookies helfen bei der Bereitstellung von Inhalten. Durch die Nutzung dieser Seiten erklärst du dich damit einverstanden, dass Cookies auf deinem Rechner gespeichert werden. Weitere Information